sensor_id;sensor_type;location;lat;lon;timestamp;P1;durP1;ratioP1;P2;durP2;ratioP2
39128;SDS011;24864;49.940;19.770;2022-07-06T00:00:40;20.40;;;18.70;;
39128;SDS011;24864;49.940;19.770;2022-07-06T00:03:08;21.00;;;18.90;;
39128;SDS011;24864;49.940;19.770;2022-07-06T00:05:36;21.52;;;19.63;;
39128;SDS011;24864;49.940;19.770;2022-07-06T00:08:04;22.75;;;20.50;;
39128;SDS011;24864;49.940;19.770;2022-07-06T00:10:32;22.23;;;20.13;;
39128;SDS011;24864;49.940;19.770;2022-07-06T00:13:00;23.40;;;20.48;;
39128;SDS011;24864;49.940;19.770;2022-07-06T00:15:29;18.63;;;17.13;;
39128;SDS011;24864;49.940;19.770;2022-07-06T00:17:57;22.52;;;20.55;;
39128;SDS011;24864;49.940;19.770;2022-07-06T00:20:26;21.75;;;19.85;;
39128;SDS011;24864;49.940;19.770;2022-07-06T00:22:53;20.55;;;18.55;;
39128;SDS011;24864;49.940;19.770;2022-07-06T00:25:21;21.00;;;19.20;;
39128;SDS011;24864;49.940;19.770;2022-07-06T00:27:49;23.15;;;21.02;;
39128;SDS011;24864;49.940;19.770;2022-07-06T00:30:17;25.05;;;21.02;;
39128;SDS011;24864;49.940;19.770;2022-07-06T00:32:46;30.02;;;21.35;;
39128;SDS011;24864;49.940;19.770;2022-07-06T00:35:15;23.58;;;21.13;;
39128;SDS011;24864;49.940;19.770;2022-07-06T00:37:43;30.30;;;22.48;;
39128;SDS011;24864;49.940;19.770;2022-07-06T00:40:11;23.38;;;21.17;;
39128;SDS011;24864;49.940;19.770;2022-07-06T00:42:40;39.65;;;22.90;;
39128;SDS011;24864;49.940;19.770;2022-07-06T00:45:09;22.50;;;20.45;;
39128;SDS011;24864;49.940;19.770;2022-07-06T00:47:38;23.33;;;21.15;;
39128;SDS011;24864;49.940;19.770;2022-07-06T00:50:09;21.20;;;19.15;;
39128;SDS011;24864;49.940;19.770;2022-07-06T00:52:41;20.95;;;18.90;;
39128;SDS011;24864;49.940;19.770;2022-07-06T00:55:10;20.20;;;18.23;;
39128;SDS011;24864;49.940;19.770;2022-07-06T00:57:38;19.85;;;18.05;;
39128;SDS011;24864;49.940;19.770;2022-07-06T01:00:07;17.52;;;15.98;;
39128;SDS011;24864;49.940;19.770;2022-07-06T01:02:37;18.83;;;17.23;;
39128;SDS011;24864;49.940;19.770;2022-07-06T01:05:08;19.02;;;17.38;;
39128;SDS011;24864;49.940;19.770;2022-07-06T01:07:38;16.77;;;15.35;;
39128;SDS011;24864;49.940;19.770;2022-07-06T01:10:08;15.95;;;14.75;;
39128;SDS011;24864;49.940;19.770;2022-07-06T01:12:37;16.42;;;15.00;;
39128;SDS011;24864;49.940;19.770;2022-07-06T01:15:07;15.82;;;14.48;;
39128;SDS011;24864;49.940;19.770;2022-07-06T01:17:39;16.00;;;14.73;;
39128;SDS011;24864;49.940;19.770;2022-07-06T01:20:10;16.65;;;15.27;;
39128;SDS011;24864;49.940;19.770;2022-07-06T01:22:38;18.05;;;16.65;;
39128;SDS011;24864;49.940;19.770;2022-07-06T01:25:07;17.60;;;15.93;;
39128;SDS011;24864;49.940;19.770;2022-07-06T01:27:36;18.67;;;16.77;;
39128;SDS011;24864;49.940;19.770;2022-07-06T01:30:05;17.73;;;16.02;;
39128;SDS011;24864;49.940;19.770;2022-07-06T01:32:35;17.92;;;16.55;;
39128;SDS011;24864;49.940;19.770;2022-07-06T01:35:05;19.45;;;17.08;;
39128;SDS011;24864;49.940;19.770;2022-07-06T01:37:36;18.23;;;16.58;;
39128;SDS011;24864;49.940;19.770;2022-07-06T01:40:05;20.10;;;17.98;;
39128;SDS011;24864;49.940;19.770;2022-07-06T01:42:34;18.55;;;16.77;;
39128;SDS011;24864;49.940;19.770;2022-07-06T01:45:02;19.55;;;18.02;;
39128;SDS011;24864;49.940;19.770;2022-07-06T01:47:31;20.02;;;18.23;;
39128;SDS011;24864;49.940;19.770;2022-07-06T01:49:59;22.65;;;20.27;;
39128;SDS011;24864;49.940;19.770;2022-07-06T01:52:28;21.63;;;19.77;;
39128;SDS011;24864;49.940;19.770;2022-07-06T01:54:57;23.02;;;20.20;;
39128;SDS011;24864;49.940;19.770;2022-07-06T01:57:25;18.55;;;17.00;;
39128;SDS011;24864;49.940;19.770;2022-07-06T01:59:53;21.23;;;19.02;;
39128;SDS011;24864;49.940;19.770;2022-07-06T02:02:21;20.10;;;18.48;;
39128;SDS011;24864;49.940;19.770;2022-07-06T02:04:49;20.10;;;17.83;;
39128;SDS011;24864;49.940;19.770;2022-07-06T02:07:17;19.65;;;17.92;;
39128;SDS011;24864;49.940;19.770;2022-07-06T02:09:45;21.05;;;18.63;;
39128;SDS011;24864;49.940;19.770;2022-07-06T02:12:14;22.98;;;18.52;;
39128;SDS011;24864;49.940;19.770;2022-07-06T02:14:42;21.50;;;19.17;;
39128;SDS011;24864;49.940;19.770;2022-07-06T02:17:10;19.92;;;18.00;;
39128;SDS011;24864;49.940;19.770;2022-07-06T02:19:38;20.27;;;18.45;;
39128;SDS011;24864;49.940;19.770;2022-07-06T02:22:06;21.40;;;19.52;;
39128;SDS011;24864;49.940;19.770;2022-07-06T02:24:34;20.30;;;18.50;;
39128;SDS011;24864;49.940;19.770;2022-07-06T02:27:02;22.20;;;19.05;;
39128;SDS011;24864;49.940;19.770;2022-07-06T02:29:32;21.08;;;19.00;;
39128;SDS011;24864;49.940;19.770;2022-07-06T02:32:00;25.17;;;19.83;;
39128;SDS011;24864;49.940;19.770;2022-07-06T02:34:28;24.80;;;21.65;;
39128;SDS011;24864;49.940;19.770;2022-07-06T02:36:55;30.52;;;21.23;;
39128;SDS011;24864;49.940;19.770;2022-07-06T02:39:23;26.55;;;21.23;;
39128;SDS011;24864;49.940;19.770;2022-07-06T02:41:51;25.83;;;23.10;;
39128;SDS011;24864;49.940;19.770;2022-07-06T02:44:19;26.88;;;24.05;;
39128;SDS011;24864;49.940;19.770;2022-07-06T02:46:49;29.40;;;26.40;;
39128;SDS011;24864;49.940;19.770;2022-07-06T02:49:16;30.08;;;26.85;;
39128;SDS011;24864;49.940;19.770;2022-07-06T02:51:44;32.00;;;28.67;;
39128;SDS011;24864;49.940;19.770;2022-07-06T02:54:12;35.47;;;27.85;;
39128;SDS011;24864;49.940;19.770;2022-07-06T02:56:40;36.20;;;28.85;;
39128;SDS011;24864;49.940;19.770;2022-07-06T02:59:08;32.83;;;29.17;;
39128;SDS011;24864;49.940;19.770;2022-07-06T03:01:40;39.45;;;28.88;;
39128;SDS011;24864;49.940;19.770;2022-07-06T03:04:09;34.10;;;28.30;;
39128;SDS011;24864;49.940;19.770;2022-07-06T03:06:37;41.05;;;30.67;;
39128;SDS011;24864;49.940;19.770;2022-07-06T03:09:05;37.92;;;31.75;;
39128;SDS011;24864;49.940;19.770;2022-07-06T03:11:33;46.53;;;32.95;;
39128;SDS011;24864;49.940;19.770;2022-07-06T03:14:02;36.70;;;32.13;;
39128;SDS011;24864;49.940;19.770;2022-07-06T03:16:31;39.70;;;32.80;;
39128;SDS011;24864;49.940;19.770;2022-07-06T03:18:59;39.85;;;35.58;;
39128;SDS011;24864;49.940;19.770;2022-07-06T03:21:28;54.05;;;38.38;;
39128;SDS011;24864;49.940;19.770;2022-07-06T03:23:57;55.22;;;38.63;;
39128;SDS011;24864;49.940;19.770;2022-07-06T03:26:24;56.60;;;41.33;;
39128;SDS011;24864;49.940;19.770;2022-07-06T03:28:52;59.33;;;43.13;;
39128;SDS011;24864;49.940;19.770;2022-07-06T03:31:20;59.90;;;42.50;;
39128;SDS011;24864;49.940;19.770;2022-07-06T03:33:48;60.28;;;43.38;;
39128;SDS011;24864;49.940;19.770;2022-07-06T03:36:16;66.13;;;47.10;;
39128;SDS011;24864;49.940;19.770;2022-07-06T03:38:46;59.85;;;45.35;;
39128;SDS011;24864;49.940;19.770;2022-07-06T03:41:14;68.53;;;44.85;;
39128;SDS011;24864;49.940;19.770;2022-07-06T03:43:43;67.32;;;45.58;;
39128;SDS011;24864;49.940;19.770;2022-07-06T03:46:11;67.00;;;46.22;;
39128;SDS011;24864;49.940;19.770;2022-07-06T03:48:39;71.80;;;47.65;;
39128;SDS011;24864;49.940;19.770;2022-07-06T03:51:07;70.20;;;48.95;;
39128;SDS011;24864;49.940;19.770;2022-07-06T03:53:37;81.25;;;49.83;;
39128;SDS011;24864;49.940;19.770;2022-07-06T03:56:06;80.28;;;51.90;;
39128;SDS011;24864;49.940;19.770;2022-07-06T03:58:52;81.03;;;50.47;;
39128;SDS011;24864;49.940;19.770;2022-07-06T04:01:20;73.10;;;49.83;;
39128;SDS011;24864;49.940;19.770;2022-07-06T04:03:49;83.22;;;50.22;;
39128;SDS011;24864;49.940;19.770;2022-07-06T04:06:17;84.57;;;49.83;;
39128;SDS011;24864;49.940;19.770;2022-07-06T04:08:45;80.57;;;51.65;;
39128;SDS011;24864;49.940;19.770;2022-07-06T04:11:14;78.28;;;49.35;;
39128;SDS011;24864;49.940;19.770;2022-07-06T04:13:43;85.63;;;50.38;;
39128;SDS011;24864;49.940;19.770;2022-07-06T04:16:10;81.20;;;48.38;;
39128;SDS011;24864;49.940;19.770;2022-07-06T04:18:38;75.05;;;49.05;;
39128;SDS011;24864;49.940;19.770;2022-07-06T04:21:07;79.57;;;47.10;;
39128;SDS011;24864;49.940;19.770;2022-07-06T04:23:35;73.95;;;47.38;;
39128;SDS011;24864;49.940;19.770;2022-07-06T04:26:03;72.03;;;46.47;;
39128;SDS011;24864;49.940;19.770;2022-07-06T04:28:32;73.55;;;45.33;;
39128;SDS011;24864;49.940;19.770;2022-07-06T04:31:00;73.47;;;45.70;;
39128;SDS011;24864;49.940;19.770;2022-07-06T04:33:28;81.35;;;47.97;;
39128;SDS011;24864;49.940;19.770;2022-07-06T04:35:56;67.18;;;45.35;;
39128;SDS011;24864;49.940;19.770;2022-07-06T04:38:24;74.72;;;47.00;;
39128;SDS011;24864;49.940;19.770;2022-07-06T04:40:52;75.80;;;47.83;;
39128;SDS011;24864;49.940;19.770;2022-07-06T04:43:20;78.18;;;47.60;;
39128;SDS011;24864;49.940;19.770;2022-07-06T04:45:49;77.55;;;49.83;;
39128;SDS011;24864;49.940;19.770;2022-07-06T04:48:17;86.95;;;51.03;;
39128;SDS011;24864;49.940;19.770;2022-07-06T04:50:46;80.95;;;51.10;;
39128;SDS011;24864;49.940;19.770;2022-07-06T04:53:13;78.05;;;50.17;;
39128;SDS011;24864;49.940;19.770;2022-07-06T04:55:41;73.47;;;46.90;;
39128;SDS011;24864;49.940;19.770;2022-07-06T04:58:09;63.67;;;43.28;;
39128;SDS011;24864;49.940;19.770;2022-07-06T05:00:37;57.63;;;40.90;;
39128;SDS011;24864;49.940;19.770;2022-07-06T05:03:06;61.30;;;43.05;;
39128;SDS011;24864;49.940;19.770;2022-07-06T05:05:35;47.80;;;35.90;;
39128;SDS011;24864;49.940;19.770;2022-07-06T05:08:03;57.45;;;37.47;;
39128;SDS011;24864;49.940;19.770;2022-07-06T05:10:31;51.78;;;37.05;;
39128;SDS011;24864;49.940;19.770;2022-07-06T05:12:59;47.72;;;31.80;;
39128;SDS011;24864;49.940;19.770;2022-07-06T05:15:27;29.70;;;23.05;;
39128;SDS011;24864;49.940;19.770;2022-07-06T05:17:54;16.83;;;14.85;;
39128;SDS011;24864;49.940;19.770;2022-07-06T05:20:24;18.80;;;16.95;;
39128;SDS011;24864;49.940;19.770;2022-07-06T05:22:52;20.70;;;18.50;;
39128;SDS011;24864;49.940;19.770;2022-07-06T05:25:20;15.82;;;14.23;;
39128;SDS011;24864;49.940;19.770;2022-07-06T05:27:48;14.32;;;12.32;;
39128;SDS011;24864;49.940;19.770;2022-07-06T05:30:15;12.95;;;11.80;;
39128;SDS011;24864;49.940;19.770;2022-07-06T05:32:43;17.70;;;16.10;;
39128;SDS011;24864;49.940;19.770;2022-07-06T05:35:11;15.85;;;13.68;;
39128;SDS011;24864;49.940;19.770;2022-07-06T05:38:01;16.77;;;15.20;;
39128;SDS011;24864;49.940;19.770;2022-07-06T05:40:29;18.27;;;16.17;;
39128;SDS011;24864;49.940;19.770;2022-07-06T05:42:57;17.15;;;15.45;;
39128;SDS011;24864;49.940;19.770;2022-07-06T05:45:25;24.00;;;15.27;;
39128;SDS011;24864;49.940;19.770;2022-07-06T05:47:53;18.17;;;15.65;;
39128;SDS011;24864;49.940;19.770;2022-07-06T05:50:37;16.50;;;14.48;;
39128;SDS011;24864;49.940;19.770;2022-07-06T05:53:07;16.98;;;14.57;;
39128;SDS011;24864;49.940;19.770;2022-07-06T05:55:45;12.93;;;11.82;;
39128;SDS011;24864;49.940;19.770;2022-07-06T05:58:13;12.88;;;11.75;;
39128;SDS011;24864;49.940;19.770;2022-07-06T06:00:41;13.20;;;11.90;;
39128;SDS011;24864;49.940;19.770;2022-07-06T06:03:09;10.25;;;9.35;;
39128;SDS011;24864;49.940;19.770;2022-07-06T06:05:38;13.05;;;8.23;;
39128;SDS011;24864;49.940;19.770;2022-07-06T06:08:07;8.55;;;6.55;;
39128;SDS011;24864;49.940;19.770;2022-07-06T06:10:35;9.73;;;7.20;;
39128;SDS011;24864;49.940;19.770;2022-07-06T06:13:03;8.27;;;7.57;;
39128;SDS011;24864;49.940;19.770;2022-07-06T06:15:31;6.88;;;6.28;;
39128;SDS011;24864;49.940;19.770;2022-07-06T06:17:59;8.05;;;6.75;;
39128;SDS011;24864;49.940;19.770;2022-07-06T06:20:28;7.63;;;6.93;;
39128;SDS011;24864;49.940;19.770;2022-07-06T06:22:56;9.10;;;7.10;;
39128;SDS011;24864;49.940;19.770;2022-07-06T06:25:30;10.45;;;7.25;;
39128;SDS011;24864;49.940;19.770;2022-07-06T06:27:59;7.97;;;7.03;;
39128;SDS011;24864;49.940;19.770;2022-07-06T06:30:27;8.10;;;7.30;;
39128;SDS011;24864;49.940;19.770;2022-07-06T06:33:05;11.45;;;7.10;;
39128;SDS011;24864;49.940;19.770;2022-07-06T06:35:35;8.60;;;7.22;;
39128;SDS011;24864;49.940;19.770;2022-07-06T06:38:03;10.98;;;7.82;;
39128;SDS011;24864;49.940;19.770;2022-07-06T06:40:32;8.77;;;6.93;;
39128;SDS011;24864;49.940;19.770;2022-07-06T06:43:00;7.82;;;7.13;;
39128;SDS011;24864;49.940;19.770;2022-07-06T06:45:28;7.88;;;7.28;;
39128;SDS011;24864;49.940;19.770;2022-07-06T06:47:57;8.98;;;6.45;;
39128;SDS011;24864;49.940;19.770;2022-07-06T06:50:26;6.88;;;6.10;;
39128;SDS011;24864;49.940;19.770;2022-07-06T06:52:54;9.95;;;5.93;;
39128;SDS011;24864;49.940;19.770;2022-07-06T06:55:22;6.38;;;5.07;;
39128;SDS011;24864;49.940;19.770;2022-07-06T06:57:51;6.70;;;6.10;;
39128;SDS011;24864;49.940;19.770;2022-07-06T07:00:19;10.73;;;4.50;;
39128;SDS011;24864;49.940;19.770;2022-07-06T07:02:47;6.70;;;5.72;;
39128;SDS011;24864;49.940;19.770;2022-07-06T07:05:15;8.55;;;7.82;;
39128;SDS011;24864;49.940;19.770;2022-07-06T07:07:43;10.38;;;6.30;;
39128;SDS011;24864;49.940;19.770;2022-07-06T07:10:11;9.95;;;8.32;;
39128;SDS011;24864;49.940;19.770;2022-07-06T07:12:42;13.15;;;8.13;;
39128;SDS011;24864;49.940;19.770;2022-07-06T07:15:12;10.88;;;9.38;;
39128;SDS011;24864;49.940;19.770;2022-07-06T07:17:41;13.60;;;9.52;;
39128;SDS011;24864;49.940;19.770;2022-07-06T07:20:09;8.40;;;7.65;;
39128;SDS011;24864;49.940;19.770;2022-07-06T07:22:37;9.68;;;8.68;;
39128;SDS011;24864;49.940;19.770;2022-07-06T07:25:06;8.70;;;7.32;;
39128;SDS011;24864;49.940;19.770;2022-07-06T07:27:34;11.43;;;7.35;;
39128;SDS011;24864;49.940;19.770;2022-07-06T07:30:03;9.93;;;8.23;;
39128;SDS011;24864;49.940;19.770;2022-07-06T07:32:33;9.70;;;8.80;;
39128;SDS011;24864;49.940;19.770;2022-07-06T07:35:01;13.32;;;11.93;;
39128;SDS011;24864;49.940;19.770;2022-07-06T07:37:29;12.07;;;10.68;;
39128;SDS011;24864;49.940;19.770;2022-07-06T07:39:58;12.10;;;10.88;;
39128;SDS011;24864;49.940;19.770;2022-07-06T07:42:25;9.50;;;8.57;;
39128;SDS011;24864;49.940;19.770;2022-07-06T07:44:54;19.27;;;10.25;;
39128;SDS011;24864;49.940;19.770;2022-07-06T07:47:22;10.45;;;9.40;;
39128;SDS011;24864;49.940;19.770;2022-07-06T07:49:51;8.60;;;7.80;;
39128;SDS011;24864;49.940;19.770;2022-07-06T07:52:19;14.52;;;10.57;;
39128;SDS011;24864;49.940;19.770;2022-07-06T07:54:47;13.00;;;11.80;;
39128;SDS011;24864;49.940;19.770;2022-07-06T07:57:35;12.65;;;11.45;;
39128;SDS011;24864;49.940;19.770;2022-07-06T08:00:04;13.82;;;12.10;;
39128;SDS011;24864;49.940;19.770;2022-07-06T08:02:33;14.70;;;12.27;;
39128;SDS011;24864;49.940;19.770;2022-07-06T08:05:02;12.80;;;11.70;;
39128;SDS011;24864;49.940;19.770;2022-07-06T08:07:30;12.57;;;11.50;;
39128;SDS011;24864;49.940;19.770;2022-07-06T08:09:58;12.45;;;11.07;;
39128;SDS011;24864;49.940;19.770;2022-07-06T08:12:26;12.20;;;11.18;;
39128;SDS011;24864;49.940;19.770;2022-07-06T08:14:54;12.77;;;11.13;;
39128;SDS011;24864;49.940;19.770;2022-07-06T08:17:22;11.82;;;10.73;;
39128;SDS011;24864;49.940;19.770;2022-07-06T08:19:50;13.82;;;10.63;;
39128;SDS011;24864;49.940;19.770;2022-07-06T08:22:20;13.13;;;11.95;;
39128;SDS011;24864;49.940;19.770;2022-07-06T08:24:48;13.52;;;12.15;;
39128;SDS011;24864;49.940;19.770;2022-07-06T08:27:16;21.52;;;12.43;;
39128;SDS011;24864;49.940;19.770;2022-07-06T08:29:44;12.32;;;11.13;;
39128;SDS011;24864;49.940;19.770;2022-07-06T08:32:12;12.98;;;10.95;;
39128;SDS011;24864;49.940;19.770;2022-07-06T08:35:00;13.25;;;12.07;;
39128;SDS011;24864;49.940;19.770;2022-07-06T08:37:29;30.77;;;24.13;;
39128;SDS011;24864;49.940;19.770;2022-07-06T08:39:57;33.95;;;27.27;;
39128;SDS011;24864;49.940;19.770;2022-07-06T08:42:26;46.80;;;32.85;;
39128;SDS011;24864;49.940;19.770;2022-07-06T08:44:58;46.78;;;37.08;;
39128;SDS011;24864;49.940;19.770;2022-07-06T08:47:27;61.83;;;39.45;;
39128;SDS011;24864;49.940;19.770;2022-07-06T08:49:56;57.70;;;40.55;;
39128;SDS011;24864;49.940;19.770;2022-07-06T08:52:24;54.67;;;41.03;;
39128;SDS011;24864;49.940;19.770;2022-07-06T08:54:54;60.65;;;44.45;;
39128;SDS011;24864;49.940;19.770;2022-07-06T08:57:23;59.03;;;44.17;;
39128;SDS011;24864;49.940;19.770;2022-07-06T08:59:53;61.42;;;45.45;;
39128;SDS011;24864;49.940;19.770;2022-07-06T09:02:22;67.38;;;48.17;;
39128;SDS011;24864;49.940;19.770;2022-07-06T09:04:53;59.90;;;45.67;;
39128;SDS011;24864;49.940;19.770;2022-07-06T09:07:24;56.75;;;44.00;;
39128;SDS011;24864;49.940;19.770;2022-07-06T09:10:15;56.97;;;41.38;;
39128;SDS011;24864;49.940;19.770;2022-07-06T09:12:45;52.88;;;43.03;;
39128;SDS011;24864;49.940;19.770;2022-07-06T09:15:13;46.35;;;38.63;;
39128;SDS011;24864;49.940;19.770;2022-07-06T09:17:42;38.60;;;34.30;;
39128;SDS011;24864;49.940;19.770;2022-07-06T09:20:11;34.92;;;31.15;;
39128;SDS011;24864;49.940;19.770;2022-07-06T09:22:40;33.38;;;28.98;;
39128;SDS011;24864;49.940;19.770;2022-07-06T09:25:09;31.85;;;27.55;;
39128;SDS011;24864;49.940;19.770;2022-07-06T09:27:40;24.98;;;22.73;;
39128;SDS011;24864;49.940;19.770;2022-07-06T09:32:38;26.30;;;22.20;;
39128;SDS011;24864;49.940;19.770;2022-07-06T09:35:08;24.65;;;22.45;;
39128;SDS011;24864;49.940;19.770;2022-07-06T09:37:46;25.80;;;23.50;;
39128;SDS011;24864;49.940;19.770;2022-07-06T09:40:18;32.92;;;23.17;;
39128;SDS011;24864;49.940;19.770;2022-07-06T09:42:47;24.27;;;21.90;;
39128;SDS011;24864;49.940;19.770;2022-07-06T09:45:19;25.85;;;23.10;;
39128;SDS011;24864;49.940;19.770;2022-07-06T09:47:52;22.90;;;20.65;;
39128;SDS011;24864;49.940;19.770;2022-07-06T09:50:20;21.75;;;19.70;;
39128;SDS011;24864;49.940;19.770;2022-07-06T09:52:53;22.23;;;19.88;;
39128;SDS011;24864;49.940;19.770;2022-07-06T09:55:22;20.23;;;18.27;;
39128;SDS011;24864;49.940;19.770;2022-07-06T09:57:54;18.63;;;17.05;;
39128;SDS011;24864;49.940;19.770;2022-07-06T10:00:22;16.45;;;15.02;;
39128;SDS011;24864;49.940;19.770;2022-07-06T10:02:51;18.17;;;16.42;;
39128;SDS011;24864;49.940;19.770;2022-07-06T10:05:22;14.73;;;13.07;;
39128;SDS011;24864;49.940;19.770;2022-07-06T10:07:53;16.45;;;14.88;;
39128;SDS011;24864;49.940;19.770;2022-07-06T10:10:25;15.35;;;13.93;;
39128;SDS011;24864;49.940;19.770;2022-07-06T10:12:56;16.30;;;12.35;;
39128;SDS011;24864;49.940;19.770;2022-07-06T10:15:26;15.05;;;13.68;;
39128;SDS011;24864;49.940;19.770;2022-07-06T10:17:54;15.68;;;14.02;;
39128;SDS011;24864;49.940;19.770;2022-07-06T10:20:23;16.48;;;13.80;;
39128;SDS011;24864;49.940;19.770;2022-07-06T10:22:55;15.75;;;13.35;;
39128;SDS011;24864;49.940;19.770;2022-07-06T10:25:26;14.35;;;12.73;;
39128;SDS011;24864;49.940;19.770;2022-07-06T10:27:54;15.20;;;13.65;;
39128;SDS011;24864;49.940;19.770;2022-07-06T10:30:24;13.93;;;12.52;;
39128;SDS011;24864;49.940;19.770;2022-07-06T10:32:53;13.45;;;12.38;;
39128;SDS011;24864;49.940;19.770;2022-07-06T10:35:24;12.30;;;10.93;;
39128;SDS011;24864;49.940;19.770;2022-07-06T10:38:02;11.43;;;10.20;;
39128;SDS011;24864;49.940;19.770;2022-07-06T10:40:32;12.80;;;11.75;;
39128;SDS011;24864;49.940;19.770;2022-07-06T10:43:19;11.23;;;9.93;;
39128;SDS011;24864;49.940;19.770;2022-07-06T10:45:50;13.32;;;9.07;;
39128;SDS011;24864;49.940;19.770;2022-07-06T10:48:22;9.23;;;8.15;;
39128;SDS011;24864;49.940;19.770;2022-07-06T10:50:52;7.07;;;6.47;;
39128;SDS011;24864;49.940;19.770;2022-07-06T10:53:21;7.70;;;6.68;;
39128;SDS011;24864;49.940;19.770;2022-07-06T10:55:51;7.82;;;7.10;;
39128;SDS011;24864;49.940;19.770;2022-07-06T11:01:14;7.72;;;7.03;;
39128;SDS011;24864;49.940;19.770;2022-07-06T11:03:43;7.95;;;5.53;;
39128;SDS011;24864;49.940;19.770;2022-07-06T11:06:14;6.93;;;4.85;;
39128;SDS011;24864;49.940;19.770;2022-07-06T11:08:47;5.78;;;5.18;;
39128;SDS011;24864;49.940;19.770;2022-07-06T11:11:21;12.00;;;4.85;;
39128;SDS011;24864;49.940;19.770;2022-07-06T11:14:02;10.75;;;5.65;;
39128;SDS011;24864;49.940;19.770;2022-07-06T11:16:34;12.65;;;5.53;;
39128;SDS011;24864;49.940;19.770;2022-07-06T11:19:08;5.82;;;4.47;;
39128;SDS011;24864;49.940;19.770;2022-07-06T11:21:39;6.90;;;4.50;;
39128;SDS011;24864;49.940;19.770;2022-07-06T11:24:10;5.90;;;5.05;;
39128;SDS011;24864;49.940;19.770;2022-07-06T11:29:11;4.97;;;4.53;;
39128;SDS011;24864;49.940;19.770;2022-07-06T11:31:39;5.50;;;3.80;;
39128;SDS011;24864;49.940;19.770;2022-07-06T11:34:09;4.70;;;3.97;;
39128;SDS011;24864;49.940;19.770;2022-07-06T11:36:39;4.00;;;3.47;;
39128;SDS011;24864;49.940;19.770;2022-07-06T11:39:12;8.98;;;3.60;;
39128;SDS011;24864;49.940;19.770;2022-07-06T11:41:40;6.65;;;3.63;;
39128;SDS011;24864;49.940;19.770;2022-07-06T11:44:17;4.65;;;3.15;;
39128;SDS011;24864;49.940;19.770;2022-07-06T11:46:45;3.10;;;2.63;;
39128;SDS011;24864;49.940;19.770;2022-07-06T11:49:13;3.72;;;2.92;;
39128;SDS011;24864;49.940;19.770;2022-07-06T11:51:42;3.65;;;2.97;;
39128;SDS011;24864;49.940;19.770;2022-07-06T11:54:12;5.68;;;2.38;;
39128;SDS011;24864;49.940;19.770;2022-07-06T11:56:47;2.90;;;2.60;;
39128;SDS011;24864;49.940;19.770;2022-07-06T11:59:21;7.63;;;3.00;;
39128;SDS011;24864;49.940;19.770;2022-07-06T12:01:50;5.30;;;2.30;;
39128;SDS011;24864;49.940;19.770;2022-07-06T12:04:26;3.28;;;2.40;;
39128;SDS011;24864;49.940;19.770;2022-07-06T12:06:54;2.90;;;1.90;;
39128;SDS011;24864;49.940;19.770;2022-07-06T12:09:22;2.33;;;1.83;;
39128;SDS011;24864;49.940;19.770;2022-07-06T12:11:50;1.73;;;1.63;;
39128;SDS011;24864;49.940;19.770;2022-07-06T12:14:20;2.85;;;1.70;;
39128;SDS011;24864;49.940;19.770;2022-07-06T12:16:49;2.33;;;1.70;;
39128;SDS011;24864;49.940;19.770;2022-07-06T12:19:19;1.75;;;1.65;;
39128;SDS011;24864;49.940;19.770;2022-07-06T12:21:49;2.92;;;2.05;;
39128;SDS011;24864;49.940;19.770;2022-07-06T12:24:19;2.53;;;1.60;;
39128;SDS011;24864;49.940;19.770;2022-07-06T12:26:49;8.40;;;2.28;;
39128;SDS011;24864;49.940;19.770;2022-07-06T12:29:18;2.13;;;1.30;;
39128;SDS011;24864;49.940;19.770;2022-07-06T12:31:50;3.53;;;1.88;;
39128;SDS011;24864;49.940;19.770;2022-07-06T12:34:19;5.82;;;1.65;;
39128;SDS011;24864;49.940;19.770;2022-07-06T12:36:50;2.65;;;1.88;;
39128;SDS011;24864;49.940;19.770;2022-07-06T12:39:20;2.95;;;1.90;;
39128;SDS011;24864;49.940;19.770;2022-07-06T12:41:50;3.13;;;1.77;;
39128;SDS011;24864;49.940;19.770;2022-07-06T12:44:20;2.83;;;1.60;;
39128;SDS011;24864;49.940;19.770;2022-07-06T12:46:50;6.40;;;1.90;;
39128;SDS011;24864;49.940;19.770;2022-07-06T12:49:29;6.25;;;2.40;;
39128;SDS011;24864;49.940;19.770;2022-07-06T12:51:58;3.25;;;1.88;;
39128;SDS011;24864;49.940;19.770;2022-07-06T12:54:28;6.07;;;2.33;;
39128;SDS011;24864;49.940;19.770;2022-07-06T12:57:02;2.55;;;2.08;;
39128;SDS011;24864;49.940;19.770;2022-07-06T12:59:33;4.82;;;2.15;;
39128;SDS011;24864;49.940;19.770;2022-07-06T13:02:05;3.88;;;2.03;;
39128;SDS011;24864;49.940;19.770;2022-07-06T13:04:35;4.32;;;2.17;;
39128;SDS011;24864;49.940;19.770;2022-07-06T13:07:04;4.97;;;1.90;;
39128;SDS011;24864;49.940;19.770;2022-07-06T13:09:34;2.25;;;2.05;;
39128;SDS011;24864;49.940;19.770;2022-07-06T13:12:02;5.00;;;2.00;;
39128;SDS011;24864;49.940;19.770;2022-07-06T13:14:30;2.58;;;2.30;;
39128;SDS011;24864;49.940;19.770;2022-07-06T13:16:58;1.65;;;1.38;;
39128;SDS011;24864;49.940;19.770;2022-07-06T13:19:28;2.20;;;2.00;;
39128;SDS011;24864;49.940;19.770;2022-07-06T13:21:56;3.53;;;2.38;;
39128;SDS011;24864;49.940;19.770;2022-07-06T13:24:24;2.95;;;1.92;;
39128;SDS011;24864;49.940;19.770;2022-07-06T13:26:54;4.22;;;2.50;;
39128;SDS011;24864;49.940;19.770;2022-07-06T13:29:22;3.50;;;1.77;;
39128;SDS011;24864;49.940;19.770;2022-07-06T13:31:51;4.63;;;2.17;;
39128;SDS011;24864;49.940;19.770;2022-07-06T13:34:18;7.63;;;1.98;;
39128;SDS011;24864;49.940;19.770;2022-07-06T13:36:48;2.40;;;2.00;;
39128;SDS011;24864;49.940;19.770;2022-07-06T13:39:16;3.13;;;2.17;;
39128;SDS011;24864;49.940;19.770;2022-07-06T13:41:44;3.38;;;2.17;;
39128;SDS011;24864;49.940;19.770;2022-07-06T13:44:12;2.28;;;1.98;;
39128;SDS011;24864;49.940;19.770;2022-07-06T13:46:41;3.83;;;2.00;;
39128;SDS011;24864;49.940;19.770;2022-07-06T13:49:09;7.97;;;2.00;;
39128;SDS011;24864;49.940;19.770;2022-07-06T13:51:38;2.85;;;1.80;;
39128;SDS011;24864;49.940;19.770;2022-07-06T13:54:08;4.18;;;2.30;;
39128;SDS011;24864;49.940;19.770;2022-07-06T13:56:36;3.25;;;2.17;;
39128;SDS011;24864;49.940;19.770;2022-07-06T13:59:05;2.35;;;2.10;;
39128;SDS011;24864;49.940;19.770;2022-07-06T14:01:33;3.38;;;2.22;;
39128;SDS011;24864;49.940;19.770;2022-07-06T14:04:01;3.13;;;2.38;;
39128;SDS011;24864;49.940;19.770;2022-07-06T14:06:29;3.30;;;2.10;;
39128;SDS011;24864;49.940;19.770;2022-07-06T14:08:57;2.63;;;1.90;;
39128;SDS011;24864;49.940;19.770;2022-07-06T14:11:26;4.00;;;2.13;;
39128;SDS011;24864;49.940;19.770;2022-07-06T14:13:54;2.33;;;1.80;;
39128;SDS011;24864;49.940;19.770;2022-07-06T14:16:22;5.05;;;2.15;;
39128;SDS011;24864;49.940;19.770;2022-07-06T14:18:50;2.25;;;1.70;;
39128;SDS011;24864;49.940;19.770;2022-07-06T14:21:18;2.42;;;1.80;;
39128;SDS011;24864;49.940;19.770;2022-07-06T14:23:46;2.53;;;1.60;;
39128;SDS011;24864;49.940;19.770;2022-07-06T14:26:15;3.08;;;2.22;;
39128;SDS011;24864;49.940;19.770;2022-07-06T14:28:45;2.72;;;1.92;;
39128;SDS011;24864;49.940;19.770;2022-07-06T14:31:13;5.78;;;2.10;;
39128;SDS011;24864;49.940;19.770;2022-07-06T14:33:46;2.15;;;1.95;;
39128;SDS011;24864;49.940;19.770;2022-07-06T14:36:14;4.20;;;2.60;;
39128;SDS011;24864;49.940;19.770;2022-07-06T14:38:42;5.07;;;2.30;;